Time;durP1;ratioP1;P1;durP2;ratioP2;P2;SDS_P1;SDS_P2;PMS_P1;PMS_P2;Temp;Humidity;BMP_temperature;BMP_pressure;BME280_temperature;BME280_humidity;BME280_pressure;Samples;Min_cycle;Max_cycle;Signal;HPM_P1;HPM_P2
2023/09/12 00:01:05;;;;;;;40.78;27.75;;;20.20;99.90;;;;;;5093516;28;20040;-75
2023/09/12 00:03:31;;;;;;;36.72;26.05;;;20.20;99.90;;;;;;5090135;28;20044;-75
2023/09/12 00:05:59;;;;;;;45.80;31.83;;;20.10;99.90;;;;;;5094759;28;20040;-75
2023/09/12 00:08:25;;;;;;;43.80;29.52;;;20.10;99.90;;;;;;5109088;28;20128;-75
2023/09/12 00:11:12;;;;;;;39.10;29.02;;;20.10;99.90;;;;;;5114860;28;20044;-75
2023/09/12 00:13:41;;;;;;;41.42;29.88;;;20.10;99.90;;;;;;5098499;28;20440;-75
2023/09/12 00:16:11;;;;;;;40.17;29.27;;;20.10;99.90;;;;;;5100705;28;20032;-75
2023/09/12 00:18:40;;;;;;;39.17;28.33;;;20.00;99.90;;;;;;5105404;28;20044;-75
2023/09/12 00:21:05;;;;;;;38.88;27.65;;;20.00;99.90;;;;;;5104463;28;20048;-75
2023/09/12 00:23:31;;;;;;;40.08;28.85;;;20.00;99.90;;;;;;5092315;28;20047;-75
2023/09/12 00:25:57;;;;;;;48.95;29.95;;;20.00;99.90;;;;;;5111602;28;20059;-75
2023/09/12 00:28:23;;;;;;;38.75;25.83;;;20.00;99.90;;;;;;5103173;28;20058;-75
2023/09/12 00:30:49;;;;;;;38.42;27.88;;;20.00;99.90;;;;;;5093628;28;20051;-75
2023/09/12 00:33:18;;;;;;;38.20;27.73;;;20.00;99.90;;;;;;5100064;28;20036;-74
2023/09/12 00:35:44;;;;;;;41.13;28.65;;;20.00;99.90;;;;;;5087708;28;20055;-76
2023/09/12 00:38:10;;;;;;;39.83;28.92;;;19.90;99.90;;;;;;5096515;28;20090;-75
2023/09/12 00:40:37;;;;;;;33.55;25.75;;;19.90;99.90;;;;;;5095492;28;20040;-75
2023/09/12 00:43:03;;;;;;;39.72;26.10;;;19.90;99.90;;;;;;5098819;28;20052;-75
2023/09/12 00:45:29;;;;;;;40.75;26.50;;;19.90;99.90;;;;;;5093804;28;20089;-76
2023/09/12 00:47:57;;;;;;;38.78;27.77;;;19.90;99.90;;;;;;5093005;28;20127;-76
2023/09/12 00:50:27;;;;;;;41.58;27.85;;;19.90;99.90;;;;;;5089176;28;20169;-75
2023/09/12 00:52:54;;;;;;;38.47;29.30;;;19.80;99.90;;;;;;5081390;28;20063;-75
2023/09/12 00:55:20;;;;;;;37.72;28.25;;;19.80;99.90;;;;;;5087918;28;20045;-74
2023/09/12 00:57:46;;;;;;;40.90;27.38;;;19.80;99.90;;;;;;5084580;28;20047;-75
2023/09/12 01:00:13;;;;;;;38.10;26.23;;;19.70;99.90;;;;;;5087079;28;20067;-75
2023/09/12 01:02:41;;;;;;;37.90;28.43;;;19.70;99.90;;;;;;5096494;28;20055;-75
2023/09/12 01:05:07;;;;;;;36.45;26.45;;;19.70;99.90;;;;;;5085844;28;20322;-75
2023/09/12 01:07:34;;;;;;;43.33;28.35;;;19.70;99.90;;;;;;5090930;28;20040;-75
2023/09/12 01:10:00;;;;;;;36.75;26.83;;;19.70;99.90;;;;;;5096691;28;20115;-75
2023/09/12 01:12:25;;;;;;;43.83;27.95;;;19.70;99.90;;;;;;5081884;28;20047;-75
2023/09/12 01:14:51;;;;;;;35.72;27.65;;;19.70;99.90;;;;;;5084187;28;20036;-76
2023/09/12 01:17:17;;;;;;;43.63;29.38;;;19.70;99.90;;;;;;5088490;28;20040;-75
2023/09/12 01:19:43;;;;;;;40.05;29.73;;;19.70;99.90;;;;;;5086238;28;20050;-74
2023/09/12 01:22:11;;;;;;;34.00;24.88;;;19.70;99.90;;;;;;5088951;28;20517;-74
2023/09/12 01:24:43;;;;;;;38.88;28.13;;;19.70;99.90;;;;;;5116588;27;20050;-75
2023/09/12 01:27:32;;;;;;;45.90;30.95;;;19.60;99.90;;;;;;5085318;28;20093;-75
2023/09/12 01:30:03;;;;;;;42.90;30.92;;;19.60;99.90;;;;;;5083346;28;20068;-74
2023/09/12 01:32:31;;;;;;;38.22;28.50;;;19.60;99.90;;;;;;5089469;28;20573;-75
2023/09/12 01:34:56;;;;;;;40.08;28.23;;;19.50;99.90;;;;;;5116348;27;20040;-76
2023/09/12 01:37:22;;;;;;;42.05;30.58;;;19.60;99.90;;;;;;5095991;28;20039;-75
2023/09/12 01:39:48;;;;;;;40.25;28.95;;;19.60;99.90;;;;;;5076200;28;20048;-75
2023/09/12 01:42:17;;;;;;;41.92;30.20;;;19.60;99.90;;;;;;5088970;28;20128;-75
2023/09/12 01:44:44;;;;;;;39.25;29.70;;;19.50;99.90;;;;;;5114766;27;20104;-74
2023/09/12 01:47:12;;;;;;;41.85;29.30;;;19.50;99.90;;;;;;5101305;28;20130;-75
2023/09/12 01:49:42;;;;;;;39.25;29.00;;;19.50;99.90;;;;;;5097031;28;20123;-75
2023/09/12 01:52:09;;;;;;;44.47;31.55;;;19.40;99.90;;;;;;5104885;28;20409;-74
2023/09/12 01:54:36;;;;;;;43.58;31.40;;;19.40;99.90;;;;;;5091549;28;20044;-75
2023/09/12 01:57:02;;;;;;;43.30;30.47;;;19.40;99.90;;;;;;5083944;28;20032;-74
2023/09/12 01:59:29;;;;;;;43.90;30.88;;;19.40;99.90;;;;;;5079595;28;20305;-75
2023/09/12 02:01:55;;;;;;;42.23;32.07;;;19.40;99.90;;;;;;5075779;28;20048;-75
2023/09/12 02:04:20;;;;;;;42.13;31.17;;;19.40;99.90;;;;;;5086725;28;20290;-75
2023/09/12 02:06:46;;;;;;;45.25;31.98;;;19.40;99.90;;;;;;5088446;28;20505;-74
2023/09/12 02:09:12;;;;;;;48.22;32.78;;;19.40;99.90;;;;;;5089954;28;20119;-74
2023/09/12 02:11:39;;;;;;;43.28;31.58;;;19.40;99.90;;;;;;5087230;28;20048;-75
2023/09/12 02:14:05;;;;;;;48.65;33.80;;;19.40;99.90;;;;;;5076164;28;20071;-74
2023/09/12 02:16:31;;;;;;;47.08;33.17;;;19.30;99.90;;;;;;5088796;28;20127;-75
2023/09/12 02:18:57;;;;;;;47.70;32.80;;;19.30;99.90;;;;;;5074842;28;20033;-75
2023/09/12 02:21:22;;;;;;;44.88;31.35;;;19.20;99.90;;;;;;5085942;28;20503;-74
2023/09/12 02:23:48;;;;;;;38.70;29.27;;;19.20;99.90;;;;;;5078943;28;20094;-75
2023/09/12 02:26:15;;;;;;;46.88;32.55;;;19.20;99.90;;;;;;5081870;28;20486;-76
2023/09/12 02:28:40;;;;;;;45.88;32.45;;;19.10;99.90;;;;;;5084105;28;20093;-75
2023/09/12 02:31:12;;;;;;;45.92;31.25;;;19.10;99.90;;;;;;5077289;28;20040;-76
2023/09/12 02:33:38;;;;;;;49.25;33.75;;;19.10;99.90;;;;;;5074436;28;20050;-76
2023/09/12 02:36:05;;;;;;;47.47;33.03;;;19.10;99.90;;;;;;5088513;28;20037;-75
2023/09/12 02:38:30;;;;;;;49.25;34.90;;;19.00;99.90;;;;;;5073003;28;20127;-74
2023/09/12 02:40:56;;;;;;;44.20;33.47;;;19.00;99.90;;;;;;5098686;28;20123;-75
2023/09/12 02:43:22;;;;;;;48.42;34.42;;;19.00;99.90;;;;;;5091559;28;20035;-75
2023/09/12 02:45:48;;;;;;;50.22;35.55;;;19.00;99.90;;;;;;5079331;28;20052;-75
2023/09/12 02:48:13;;;;;;;47.38;33.47;;;19.00;99.90;;;;;;5086322;28;20425;-75
2023/09/12 02:50:39;;;;;;;47.38;33.83;;;19.00;99.90;;;;;;5078512;28;20036;-76
2023/09/12 02:53:06;;;;;;;44.33;32.33;;;19.00;99.90;;;;;;5066147;28;20124;-75
2023/09/12 02:55:32;;;;;;;48.10;35.95;;;19.00;99.90;;;;;;5077577;28;20472;-75
2023/09/12 02:57:57;;;;;;;49.53;34.33;;;19.00;99.90;;;;;;5078118;28;20037;-74
2023/09/12 03:00:23;;;;;;;51.42;35.78;;;19.10;99.90;;;;;;5087204;28;20385;-74
2023/09/12 03:02:49;;;;;;;47.03;34.35;;;19.10;99.90;;;;;;5093461;28;20079;-75
2023/09/12 03:05:14;;;;;;;48.20;35.15;;;19.10;99.90;;;;;;5091429;28;20476;-75
2023/09/12 03:07:40;;;;;;;50.72;36.17;;;19.10;99.90;;;;;;5085764;28;20040;-75
2023/09/12 03:10:06;;;;;;;51.20;34.85;;;19.10;99.90;;;;;;5072875;28;20552;-75
2023/09/12 03:12:32;;;;;;;49.90;34.13;;;19.10;99.90;;;;;;5082496;28;20055;-75
2023/09/12 03:14:58;;;;;;;52.50;33.88;;;19.10;99.90;;;;;;5078851;28;20049;-73
2023/09/12 03:17:23;;;;;;;47.33;33.38;;;19.00;99.90;;;;;;5084735;28;20114;-74
2023/09/12 03:19:49;;;;;;;53.60;33.90;;;19.00;99.90;;;;;;5089142;28;20478;-75
2023/09/12 03:22:15;;;;;;;46.35;32.83;;;19.00;99.90;;;;;;5115855;28;20043;-75
2023/09/12 03:24:41;;;;;;;47.35;32.92;;;19.00;99.90;;;;;;5084873;28;20044;-75
2023/09/12 03:27:07;;;;;;;41.08;29.88;;;19.00;99.90;;;;;;5079011;28;20451;-75
2023/09/12 03:29:36;;;;;;;46.05;32.03;;;18.90;99.90;;;;;;5085495;28;20136;-75
2023/09/12 03:32:02;;;;;;;48.30;32.83;;;18.90;99.90;;;;;;5087493;28;20036;-75
2023/09/12 03:34:31;;;;;;;51.10;32.22;;;18.90;99.90;;;;;;5070989;28;20411;-75
2023/09/12 03:36:56;;;;;;;44.83;31.90;;;18.90;99.90;;;;;;5100364;28;20051;-74
2023/09/12 03:39:22;;;;;;;44.15;32.58;;;18.90;99.90;;;;;;5082982;28;20075;-75
2023/09/12 03:41:47;;;;;;;44.72;30.52;;;19.00;99.90;;;;;;5099387;28;20497;-75
2023/09/12 03:44:13;;;;;;;47.00;30.92;;;18.90;99.90;;;;;;5087211;28;20036;-76
2023/09/12 03:46:39;;;;;;;41.67;30.02;;;18.90;99.90;;;;;;5095882;28;20051;-75
2023/09/12 03:49:04;;;;;;;41.65;29.02;;;18.90;99.90;;;;;;5099277;28;20050;-75
2023/09/12 03:51:30;;;;;;;42.78;28.23;;;18.90;99.90;;;;;;5079559;28;20040;-76
2023/09/12 03:53:56;;;;;;;38.33;26.42;;;18.90;99.90;;;;;;5087982;28;20131;-75
2023/09/12 03:56:21;;;;;;;35.92;27.02;;;18.90;99.90;;;;;;5088950;28;20044;-76
2023/09/12 03:58:47;;;;;;;37.92;27.27;;;18.80;99.90;;;;;;5087415;28;20123;-75
2023/09/12 04:01:13;;;;;;;41.05;28.90;;;18.80;99.90;;;;;;5085959;28;20036;-75
2023/09/12 04:03:38;;;;;;;38.75;27.52;;;18.80;99.90;;;;;;5077162;28;20044;-76
2023/09/12 04:06:04;;;;;;;37.13;27.48;;;18.80;99.90;;;;;;5098770;28;20031;-76
2023/09/12 04:08:30;;;;;;;37.40;28.25;;;18.70;99.90;;;;;;5080674;28;20536;-76
2023/09/12 04:10:55;;;;;;;44.30;28.17;;;18.70;99.90;;;;;;5088999;28;20045;-75
2023/09/12 04:13:21;;;;;;;49.33;30.73;;;18.60;99.90;;;;;;5076274;28;20032;-75
2023/09/12 04:15:47;;;;;;;43.05;30.77;;;18.60;99.90;;;;;;5085491;28;20625;-75
2023/09/12 04:18:13;;;;;;;38.25;27.95;;;18.60;99.90;;;;;;5095091;28;20067;-75
2023/09/12 04:20:39;;;;;;;43.55;28.80;;;18.60;99.90;;;;;;5093451;28;20040;-75
2023/09/12 04:23:05;;;;;;;52.13;33.55;;;18.50;99.90;;;;;;5097637;28;20070;-75
2023/09/12 04:25:31;;;;;;;50.28;32.13;;;18.50;99.90;;;;;;5084711;28;20123;-75
2023/09/12 04:27:56;;;;;;;42.92;30.38;;;18.50;99.90;;;;;;5080363;28;20052;-75
2023/09/12 04:30:22;;;;;;;46.47;32.17;;;18.50;99.90;;;;;;5093746;28;20032;-75
2023/09/12 04:32:48;;;;;;;42.25;30.67;;;18.50;99.90;;;;;;5083266;28;20040;-75
2023/09/12 04:35:14;;;;;;;47.33;31.38;;;18.50;99.90;;;;;;5082158;28;20036;-75
2023/09/12 04:37:39;;;;;;;43.67;30.80;;;18.40;99.90;;;;;;5091390;28;20036;-75
2023/09/12 04:40:06;;;;;;;48.67;31.55;;;18.50;99.90;;;;;;5091372;28;20615;-74
2023/09/12 04:42:32;;;;;;;41.33;29.30;;;18.40;99.90;;;;;;5095592;28;20044;-75
2023/09/12 04:44:58;;;;;;;43.35;28.88;;;18.50;99.90;;;;;;5084049;28;20040;-74
2023/09/12 04:47:23;;;;;;;44.53;29.70;;;18.40;99.90;;;;;;5090007;28;20036;-75
2023/09/12 04:49:49;;;;;;;49.40;32.85;;;18.50;99.90;;;;;;5089001;28;20033;-75
2023/09/12 04:52:15;;;;;;;48.78;32.60;;;18.40;99.90;;;;;;5086669;28;20786;-74
2023/09/12 04:54:40;;;;;;;43.92;30.83;;;18.40;99.90;;;;;;5093089;28;20040;-74
2023/09/12 04:57:08;;;;;;;49.90;31.67;;;18.40;99.90;;;;;;5091194;28;20127;-74
2023/09/12 04:59:33;;;;;;;48.67;33.28;;;18.40;99.90;;;;;;5088073;28;20068;-75
2023/09/12 05:01:59;;;;;;;48.80;31.55;;;18.40;99.90;;;;;;5090660;28;20115;-75
2023/09/12 05:04:25;;;;;;;43.80;31.85;;;18.40;99.90;;;;;;5091864;28;20032;-74
2023/09/12 05:06:51;;;;;;;55.08;33.25;;;18.40;99.90;;;;;;5096487;28;20039;-75
2023/09/12 05:09:16;;;;;;;44.55;30.17;;;18.40;99.90;;;;;;5106621;28;20044;-75
2023/09/12 05:11:42;;;;;;;43.13;30.77;;;18.40;99.90;;;;;;5092715;28;20044;-76
2023/09/12 05:14:08;;;;;;;43.72;31.38;;;18.40;99.90;;;;;;5103559;28;20059;-75
2023/09/12 05:16:33;;;;;;;51.83;32.70;;;18.30;99.90;;;;;;5098500;28;20104;-75
2023/09/12 05:19:03;;;;;;;47.53;31.85;;;18.30;99.90;;;;;;5087432;28;20040;-76
2023/09/12 05:21:29;;;;;;;49.47;31.85;;;18.30;99.90;;;;;;5084454;28;20036;-74
2023/09/12 05:23:54;;;;;;;48.83;32.15;;;18.30;99.90;;;;;;5081923;28;20067;-76
2023/09/12 05:26:21;;;;;;;51.97;33.85;;;18.30;99.90;;;;;;5080086;28;20440;-74
2023/09/12 05:28:47;;;;;;;46.45;32.95;;;18.30;99.90;;;;;;5078414;28;20540;-75
2023/09/12 05:31:13;;;;;;;48.20;32.13;;;18.30;99.90;;;;;;5090172;28;20040;-75
2023/09/12 05:33:38;;;;;;;50.08;32.13;;;18.30;99.90;;;;;;5086587;28;20040;-75
2023/09/12 05:36:04;;;;;;;47.35;31.08;;;18.20;99.90;;;;;;5086317;28;20044;-74
2023/09/12 05:38:30;;;;;;;48.15;32.38;;;18.20;99.90;;;;;;5088399;28;20074;-74
2023/09/12 05:40:56;;;;;;;48.40;31.83;;;18.30;99.90;;;;;;5092492;28;20089;-75
2023/09/12 05:43:22;;;;;;;54.17;34.75;;;18.30;99.90;;;;;;5089514;28;20115;-74
2023/09/12 05:45:49;;;;;;;56.70;34.20;;;18.30;99.90;;;;;;5081189;28;20147;-74
2023/09/12 05:48:14;;;;;;;57.85;35.70;;;18.30;99.90;;;;;;5086892;28;20118;-76
2023/09/12 05:50:40;;;;;;;53.28;33.47;;;18.30;99.90;;;;;;5087767;28;20118;-76
2023/09/12 05:53:05;;;;;;;55.40;33.25;;;18.30;99.90;;;;;;5076221;28;20128;-74
2023/09/12 05:55:31;;;;;;;62.90;36.03;;;18.30;99.90;;;;;;5083257;28;20037;-75
2023/09/12 05:57:57;;;;;;;59.30;33.88;;;18.30;99.90;;;;;;5103054;28;20035;-76
2023/09/12 06:00:22;;;;;;;59.50;36.00;;;18.40;99.90;;;;;;5084789;28;20089;-75
2023/09/12 06:02:48;;;;;;;55.67;33.10;;;18.40;99.90;;;;;;5073598;28;20419;-75
2023/09/12 06:05:15;;;;;;;52.15;34.50;;;18.40;99.90;;;;;;5084114;28;20087;-75
2023/09/12 06:07:41;;;;;;;56.13;33.90;;;18.40;99.90;;;;;;5086469;28;20033;-75
2023/09/12 06:10:08;;;;;;;51.30;33.97;;;18.40;99.90;;;;;;5073638;28;20501;-76
2023/09/12 06:12:35;;;;;;;53.95;35.80;;;18.40;99.90;;;;;;5094114;28;20409;-76
2023/09/12 06:15:03;;;;;;;50.92;35.60;;;18.40;99.90;;;;;;5066405;28;20044;-75
2023/09/12 06:17:29;;;;;;;55.03;34.60;;;18.40;99.90;;;;;;5092996;28;20044;-75
2023/09/12 06:19:55;;;;;;;68.45;36.40;;;18.40;99.90;;;;;;5092204;28;20033;-75
2023/09/12 06:22:24;;;;;;;63.72;37.15;;;18.40;99.90;;;;;;5095595;28;20044;-77
2023/09/12 06:24:50;;;;;;;62.63;37.97;;;18.40;99.90;;;;;;5096104;28;20459;-77
2023/09/12 06:27:19;;;;;;;69.45;37.33;;;18.50;99.90;;;;;;5088972;28;20044;-76
2023/09/12 06:29:49;;;;;;;73.85;40.00;;;18.50;99.90;;;;;;5114746;27;20522;-76
2023/09/12 06:32:17;;;;;;;74.28;39.95;;;18.50;99.90;;;;;;5088995;28;20040;-76
2023/09/12 06:34:43;;;;;;;;;;;18.50;99.90;;;;;;5086497;28;20559;-77
2023/09/12 06:37:10;;;;;;;78.20;40.72;;;18.50;99.90;;;;;;5085074;28;19967;-76
2023/09/12 06:39:35;;;;;;;81.47;39.47;;;18.50;99.90;;;;;;5091924;28;20039;-77
2023/09/12 06:42:03;;;;;;;75.40;40.13;;;18.50;99.90;;;;;;5086007;28;20043;-76
2023/09/12 06:44:29;;;;;;;76.93;38.95;;;18.50;99.90;;;;;;5080835;28;20067;-77
2023/09/12 06:46:54;;;;;;;77.40;38.13;;;18.50;99.90;;;;;;5095737;28;20036;-76
2023/09/12 06:49:20;;;;;;;83.85;39.75;;;18.50;99.90;;;;;;5097587;28;20043;-77
2023/09/12 06:51:45;;;;;;;77.53;38.35;;;18.60;99.90;;;;;;5083448;28;20548;-76
2023/09/12 06:54:12;;;;;;;76.53;37.40;;;18.60;99.90;;;;;;5093591;28;20036;-77
2023/09/12 06:56:38;;;;;;;82.57;39.58;;;18.60;99.90;;;;;;5082140;28;20068;-76
2023/09/12 06:59:04;;;;;;;83.32;38.88;;;18.60;99.90;;;;;;5081593;28;20078;-75
2023/09/12 07:01:30;;;;;;;83.15;40.20;;;18.60;99.90;;;;;;5086089;28;20041;-76
2023/09/12 07:03:56;;;;;;;100.53;44.38;;;18.70;99.90;;;;;;5085224;28;20040;-76
2023/09/12 07:06:23;;;;;;;83.35;40.35;;;18.70;99.90;;;;;;5100643;28;20039;-76
2023/09/12 07:08:51;;;;;;;79.47;39.03;;;18.80;99.90;;;;;;5090156;28;20048;-75
2023/09/12 07:11:20;;;;;;;73.68;40.13;;;18.80;99.90;;;;;;5091565;28;20044;-76
2023/09/12 07:13:46;;;;;;;72.47;39.42;;;18.80;99.90;;;;;;5090776;28;20397;-76
2023/09/12 07:16:12;;;;;;;81.53;40.55;;;18.90;99.90;;;;;;5088304;28;20111;-76
2023/09/12 07:18:38;;;;;;;68.20;38.47;;;18.90;99.90;;;;;;5074967;28;20069;-76
2023/09/12 07:21:06;;;;;;;78.68;39.38;;;19.00;99.90;;;;;;5081345;28;20371;-76
2023/09/12 07:23:32;;;;;;;66.18;37.38;;;19.10;99.90;;;;;;5087604;28;20062;-76
2023/09/12 07:25:58;;;;;;;72.40;39.33;;;19.20;99.90;;;;;;5105522;28;20053;-76
2023/09/12 07:28:24;;;;;;;72.40;37.97;;;19.30;99.90;;;;;;5077138;28;20048;-76
2023/09/12 07:30:50;;;;;;;65.00;36.03;;;19.40;99.90;;;;;;5082097;28;20046;-76
2023/09/12 07:33:16;;;;;;;64.30;37.60;;;19.50;99.90;;;;;;5096851;28;20045;-76
2023/09/12 07:35:42;;;;;;;64.07;37.40;;;19.60;99.90;;;;;;5092252;28;20051;-77
2023/09/12 07:38:08;;;;;;;59.17;36.75;;;19.60;99.90;;;;;;5081213;28;20457;-76
2023/09/12 07:40:33;;;;;;;64.70;38.50;;;19.70;99.90;;;;;;5087211;28;20040;-76
2023/09/12 07:42:59;;;;;;;62.42;35.28;;;19.80;99.90;;;;;;5086584;28;20039;-76
2023/09/12 07:45:25;;;;;;;63.97;37.40;;;19.90;99.90;;;;;;5102632;28;20615;-77
2023/09/12 07:47:51;;;;;;;61.45;35.67;;;19.90;99.90;;;;;;5095817;28;20375;-76
2023/09/12 07:50:16;;;;;;;56.60;33.97;;;19.90;99.90;;;;;;5113440;28;20032;-77
2023/09/12 07:52:42;;;;;;;57.85;36.22;;;20.00;99.90;;;;;;5086405;28;20171;-76
2023/09/12 07:55:08;;;;;;;62.60;37.88;;;20.00;99.90;;;;;;5095935;28;20037;-76
2023/09/12 07:57:34;;;;;;;59.95;36.53;;;20.10;99.90;;;;;;5095341;28;20063;-75
2023/09/12 08:00:01;;;;;;;62.05;35.95;;;20.00;99.90;;;;;;5113368;28;20458;-75
2023/09/12 08:02:26;;;;;;;64.18;36.90;;;20.10;99.90;;;;;;5092102;28;20063;-75
2023/09/12 08:04:53;;;;;;;62.22;37.35;;;20.10;99.90;;;;;;5095568;28;20048;-76
2023/09/12 08:07:19;;;;;;;62.00;37.92;;;20.00;99.90;;;;;;5085772;28;20040;-77
2023/09/12 08:09:57;;;;;;;61.55;37.22;;;20.00;99.90;;;;;;5104869;28;20047;-76
2023/09/12 08:12:25;;;;;;;62.67;37.15;;;20.00;99.90;;;;;;5081294;28;20126;-76
2023/09/12 08:14:51;;;;;;;57.38;36.35;;;20.00;99.90;;;;;;5083831;28;20037;-76
2023/09/12 08:17:17;;;;;;;58.63;37.13;;;19.90;99.90;;;;;;5089935;28;20555;-77
2023/09/12 08:19:45;;;;;;;61.97;37.20;;;19.90;99.90;;;;;;5091577;28;20039;-77
2023/09/12 08:22:11;;;;;;;55.78;35.67;;;19.90;99.90;;;;;;5091926;28;20424;-75
2023/09/12 08:24:38;;;;;;;53.78;34.75;;;20.00;99.90;;;;;;5078449;28;20521;-76
2023/09/12 08:27:05;;;;;;;54.77;34.30;;;20.10;99.90;;;;;;5098391;28;20101;-75
2023/09/12 08:29:32;;;;;;;60.78;37.80;;;20.10;99.90;;;;;;5091306;28;20294;-75
2023/09/12 08:31:58;;;;;;;62.92;36.70;;;20.10;99.90;;;;;;5084143;28;20044;-76
2023/09/12 08:34:23;;;;;;;63.35;34.60;;;20.10;99.90;;;;;;5084525;28;20046;-75
2023/09/12 08:36:49;;;;;;;57.65;35.90;;;20.10;99.90;;;;;;5093288;28;20486;-74
2023/09/12 08:39:18;;;;;;;58.05;35.78;;;20.20;99.90;;;;;;5105542;28;20028;-76
2023/09/12 08:41:46;;;;;;;55.92;36.03;;;20.20;99.90;;;;;;5084095;28;20041;-76
2023/09/12 08:44:13;;;;;;;56.90;33.10;;;20.40;99.90;;;;;;5109513;28;20053;-75
2023/09/12 08:46:44;;;;;;;55.83;34.28;;;20.40;99.90;;;;;;5075202;28;20138;-76
2023/09/12 08:49:10;;;;;;;57.13;32.47;;;20.50;99.90;;;;;;5067969;28;20115;-75
2023/09/12 08:51:38;;;;;;;54.40;33.83;;;20.60;99.90;;;;;;5072442;28;20483;-75
2023/09/12 08:54:06;;;;;;;54.28;30.80;;;20.70;99.90;;;;;;5094678;28;20048;-74
2023/09/12 08:56:34;;;;;;;56.25;31.65;;;20.80;99.90;;;;;;5094150;28;20036;-75
2023/09/12 08:59:01;;;;;;;46.35;29.55;;;21.00;99.90;;;;;;5098728;27;20502;-74
2023/09/12 09:01:30;;;;;;;46.75;30.55;;;21.00;99.90;;;;;;5088980;28;20037;-74
2023/09/12 09:03:57;;;;;;;48.78;30.13;;;21.10;99.90;;;;;;5089439;28;20070;-74
2023/09/12 09:06:24;;;;;;;46.03;28.67;;;21.00;99.90;;;;;;5090002;28;20549;-74
2023/09/12 09:08:53;;;;;;;43.67;27.75;;;21.00;99.90;;;;;;5095503;28;20046;-74
2023/09/12 09:11:18;;;;;;;43.88;30.00;;;21.00;99.90;;;;;;5090883;28;20049;-76
2023/09/12 09:13:44;;;;;;;48.92;28.88;;;21.00;99.90;;;;;;5077851;28;20032;-76
2023/09/12 09:16:15;;;;;;;46.92;28.08;;;21.10;99.90;;;;;;5075500;28;20032;-75
2023/09/12 09:18:55;;;;;;;50.72;29.83;;;21.00;99.90;;;;;;5077731;28;20056;-76
2023/09/12 09:21:25;;;;;;;47.42;29.40;;;21.10;99.90;;;;;;5086585;28;20044;-76
2023/09/12 09:23:54;;;;;;;44.90;29.08;;;21.20;99.90;;;;;;5074207;28;20057;-75
2023/09/12 09:26:21;;;;;;;46.45;31.00;;;21.10;99.90;;;;;;5086033;28;20040;-75
2023/09/12 09:29:08;;;;;;;45.05;28.42;;;21.20;99.90;;;;;;5077689;28;20064;-76
2023/09/12 09:31:34;;;;;;;47.85;30.00;;;21.10;99.90;;;;;;5086028;28;20131;-75
2023/09/12 09:34:01;;;;;;;45.42;28.98;;;21.20;99.90;;;;;;5087044;28;20489;-76
2023/09/12 09:36:27;;;;;;;43.35;29.25;;;21.20;99.90;;;;;;5086145;28;20048;-76
2023/09/12 09:38:54;;;;;;;50.50;31.05;;;21.30;99.90;;;;;;5109884;27;20040;-75
2023/09/12 09:41:24;;;;;;;45.88;28.10;;;21.30;99.90;;;;;;5077279;28;20032;-76
2023/09/12 09:43:51;;;;;;;47.85;30.25;;;21.40;99.90;;;;;;5079443;28;20413;-75
2023/09/12 09:46:19;;;;;;;44.65;29.30;;;21.40;99.90;;;;;;5074825;28;20033;-76
2023/09/12 09:48:51;;;;;;;46.15;30.13;;;21.40;99.90;;;;;;5078876;28;20048;-75
2023/09/12 09:51:17;;;;;;;44.22;28.52;;;21.40;99.90;;;;;;5077713;28;20378;-75
2023/09/12 09:53:43;;;;;;;46.17;29.20;;;21.40;99.90;;;;;;5109025;27;20457;-74
2023/09/12 09:56:14;;;;;;;43.58;28.48;;;21.50;99.90;;;;;;5073003;28;20082;-75
2023/09/12 09:58:58;;;;;;;45.72;29.58;;;21.50;99.90;;;;;;5077069;28;20036;-76
2023/09/12 10:01:27;;;;;;;47.35;29.98;;;21.70;99.90;;;;;;5085746;28;20032;-76
2023/09/12 10:03:59;;;;;;;47.47;30.40;;;21.80;99.90;;;;;;5065780;28;20041;-76
2023/09/12 10:06:28;;;;;;;43.47;30.23;;;21.80;99.90;;;;;;5083809;28;20033;-76
2023/09/12 10:08:55;;;;;;;46.83;31.75;;;21.90;99.90;;;;;;5092212;28;20086;-74
2023/09/12 10:11:28;;;;;;;46.92;30.42;;;21.90;99.90;;;;;;5096459;28;20053;-75
2023/09/12 10:13:59;;;;;;;45.00;30.42;;;21.90;99.90;;;;;;5087535;28;20098;-76
2023/09/12 10:16:30;;;;;;;44.42;29.27;;;22.00;99.90;;;;;;5078620;28;20038;-76
2023/09/12 10:19:14;;;;;;;48.80;29.75;;;22.10;99.90;;;;;;5098914;28;20100;-76
2023/09/12 10:22:09;;;;;;;43.97;30.48;;;22.30;99.90;;;;;;5075711;28;20110;-77
2023/09/12 10:24:36;;;;;;;47.40;31.10;;;22.50;99.90;;;;;;5074766;28;20439;-77
2023/09/12 10:27:06;;;;;;;45.85;31.77;;;22.70;99.90;;;;;;5083709;28;20040;-76
2023/09/12 10:29:32;;;;;;;43.25;28.77;;;22.80;99.90;;;;;;5080731;28;20032;-75
2023/09/12 10:31:57;;;;;;;43.03;28.38;;;22.80;99.90;;;;;;5077527;28;20248;-77
2023/09/12 10:34:26;;;;;;;42.65;28.42;;;22.90;99.90;;;;;;5083440;28;20054;-75
2023/09/12 10:36:55;;;;;;;41.30;27.30;;;23.20;99.90;;;;;;5068250;28;20494;-77
2023/09/12 10:39:22;;;;;;;49.25;28.55;;;23.30;99.90;;;;;;5092185;28;20043;-75
2023/09/12 10:41:49;;;;;;;;;;;23.40;99.90;;;;;;5090113;28;20052;-75
2023/09/12 10:44:17;;;;;;;39.90;25.60;;;23.40;99.90;;;;;;5098461;28;19928;-77
2023/09/12 10:46:44;;;;;;;;;;;23.30;99.90;;;;;;5076683;28;20136;-76
2023/09/12 10:49:14;;;;;;;33.72;25.75;;;23.30;99.90;;;;;;5078592;28;20007;-76
2023/09/12 10:51:42;;;;;;;37.45;25.15;;;23.20;99.90;;;;;;5060289;28;20051;-75
2023/09/12 10:54:12;;;;;;;38.53;27.10;;;23.10;99.90;;;;;;5072367;28;20109;-76
2023/09/12 10:56:39;;;;;;;39.58;26.02;;;23.10;99.90;;;;;;5088713;28;20125;-76
2023/09/12 10:59:06;;;;;;;46.80;27.13;;;23.20;99.90;;;;;;5074234;28;20068;-76
2023/09/12 11:01:36;;;;;;;35.88;25.50;;;23.30;99.90;;;;;;5084045;28;20052;-75
2023/09/12 11:04:20;;;;;;;44.50;25.65;;;23.30;99.90;;;;;;5112707;28;20051;-75
2023/09/12 11:06:50;;;;;;;33.88;24.95;;;23.40;99.90;;;;;;5110329;27;20398;-76
2023/09/12 11:09:18;;;;;;;39.17;25.05;;;23.50;99.90;;;;;;5093323;28;20380;-76
2023/09/12 11:11:48;;;;;;;36.17;24.27;;;23.50;99.90;;;;;;5085717;28;20047;-76
2023/09/12 11:14:15;;;;;;;38.83;25.55;;;23.60;99.90;;;;;;5091092;28;20491;-76
2023/09/12 11:16:41;;;;;;;35.38;23.48;;;23.50;99.90;;;;;;5082174;28;20093;-77
2023/09/12 11:19:25;;;;;;;40.47;25.65;;;23.50;99.90;;;;;;5090806;28;20036;-75
2023/09/12 11:21:53;;;;;;;37.97;27.58;;;23.50;99.90;;;;;;5090172;28;20040;-76
2023/09/12 11:24:20;;;;;;;38.15;26.77;;;23.50;99.90;;;;;;5089604;28;20449;-75
2023/09/12 11:27:05;;;;;;;35.63;25.17;;;23.50;99.90;;;;;;5083517;28;20605;-78
2023/09/12 11:29:38;;;;;;;41.53;25.60;;;23.50;99.90;;;;;;5099904;28;20048;-76
2023/09/12 11:32:05;;;;;;;44.13;27.92;;;23.50;99.90;;;;;;5114995;27;20052;-76
2023/09/12 11:34:41;;;;;;;35.22;25.17;;;23.50;99.90;;;;;;5077808;28;20040;-76
2023/09/12 11:37:07;;;;;;;36.80;26.48;;;23.60;99.90;;;;;;5087534;28;20052;-75
2023/09/12 11:39:34;;;;;;;35.55;24.65;;;23.70;99.90;;;;;;5080876;28;20040;-78
2023/09/12 11:42:01;;;;;;;31.27;20.58;;;23.70;99.90;;;;;;5074996;28;20375;-75
2023/09/12 11:44:27;;;;;;;31.23;20.95;;;23.90;99.90;;;;;;5078111;28;20048;-76
2023/09/12 11:46:55;;;;;;;33.75;23.17;;;24.00;99.90;;;;;;5064227;28;20056;-76
2023/09/12 11:49:21;;;;;;;35.90;22.63;;;24.00;99.90;;;;;;5078726;28;20062;-75
2023/09/12 11:51:55;;;;;;;34.53;25.02;;;24.10;99.90;;;;;;5080274;28;20044;-75
2023/09/12 11:54:25;;;;;;;42.47;24.90;;;24.10;99.90;;;;;;5084774;28;20044;-76
2023/09/12 11:56:59;;;;;;;39.20;23.50;;;24.20;99.90;;;;;;5078506;28;20032;-76
2023/09/12 11:59:26;;;;;;;32.03;20.35;;;24.20;99.90;;;;;;5088994;28;20044;-75
2023/09/12 12:01:52;;;;;;;32.25;20.30;;;24.30;99.90;;;;;;5091863;28;20087;-77
2023/09/12 12:04:21;;;;;;;31.27;19.52;;;24.30;99.90;;;;;;5104717;28;20044;-77
2023/09/12 12:06:48;;;;;;;27.25;17.85;;;24.30;99.90;;;;;;5089725;28;20063;-76
2023/09/12 12:09:17;;;;;;;32.22;21.00;;;24.20;99.90;;;;;;5098393;28;20040;-75
2023/09/12 12:11:43;;;;;;;27.63;20.13;;;24.10;99.90;;;;;;5081651;28;20101;-73
2023/09/12 12:14:16;;;;;;;26.17;18.77;;;24.00;99.90;;;;;;5091319;28;20259;-75
2023/09/12 12:16:43;;;;;;;29.55;19.77;;;23.90;99.90;;;;;;5081369;28;20049;-75
2023/09/12 12:19:11;;;;;;;27.80;18.70;;;23.90;99.90;;;;;;5074174;28;20066;-76
2023/09/12 12:21:37;;;;;;;28.38;20.75;;;24.00;99.90;;;;;;5066718;28;20068;-76
2023/09/12 12:24:04;;;;;;;29.52;19.98;;;24.20;99.90;;;;;;5062696;28;20086;-75
2023/09/12 12:26:33;;;;;;;31.75;19.25;;;24.40;99.90;;;;;;5058078;28;20147;-76
2023/09/12 12:29:01;;;;;;;30.92;22.17;;;24.40;99.90;;;;;;5061492;28;20040;-76